Time;durP1;ratioP1;P1;durP2;ratioP2;P2;SDS_P1;SDS_P2;PMS_P1;PMS_P2;Temp;Humidity;BMP_temperature;BMP_pressure;BME280_temperature;BME280_humidity;BME280_pressure;Samples;Min_cycle;Max_cycle;Signal;HPM_P1;HPM_P2
2022/12/29 00:00:04;;;;;;;1.00;0.80;;;10.70;99.20;;;;;;5067277;28;20439;-68
2022/12/29 00:02:30;;;;;;;1.20;1.00;;;10.70;99.50;;;;;;5064126;28;20423;-68
2022/12/29 00:04:57;;;;;;;0.90;0.70;;;10.60;99.90;;;;;;5065091;28;21037;-68
2022/12/29 00:07:25;;;;;;;0.90;0.70;;;10.60;99.90;;;;;;5066156;28;20428;-68
2022/12/29 00:09:52;;;;;;;0.80;0.70;;;10.60;99.90;;;;;;5063470;28;20427;-68
2022/12/29 00:12:19;;;;;;;1.20;0.90;;;10.60;99.90;;;;;;5067857;28;20423;-69
2022/12/29 00:17:30;;;;;;;1.00;0.90;;;10.60;99.90;;;;;;5066265;28;20414;-68
2022/12/29 00:36:32;;;;;;;0.80;0.60;;;10.90;99.00;;;;;;5067326;28;20497;-68
2022/12/29 00:44:44;;;;;;;0.70;0.50;;;11.10;98.00;;;;;;5005138;28;22489;-69
2022/12/29 00:47:10;;;;;;;0.80;0.50;;;11.10;97.70;;;;;;5050633;28;20427;-68
2022/12/29 00:49:36;;;;;;;0.60;0.40;;;11.20;97.30;;;;;;5080264;28;20418;-68
2022/12/29 00:52:04;;;;;;;0.70;0.40;;;11.20;97.10;;;;;;5067225;28;20507;-68
2022/12/29 00:54:34;;;;;;;1.33;0.40;;;11.30;96.50;;;;;;5066973;28;20912;-68
2022/12/29 00:57:02;;;;;;;0.70;0.40;;;11.40;95.80;;;;;;5065893;28;20430;-67
2022/12/29 00:59:29;;;;;;;0.60;0.40;;;11.40;96.00;;;;;;5067343;28;20415;-69
2022/12/29 01:01:56;;;;;;;0.80;0.40;;;11.50;95.60;;;;;;5064723;28;20428;-69
2022/12/29 01:04:25;;;;;;;0.60;0.40;;;11.50;95.50;;;;;;5065210;28;20458;-69
2022/12/29 01:06:53;;;;;;;0.80;0.40;;;11.50;96.10;;;;;;5066525;28;20427;-69
2022/12/29 01:12:07;;;;;;;0.53;0.40;;;11.40;96.60;;;;;;5067617;28;20522;-69
2022/12/29 01:14:35;;;;;;;0.60;0.40;;;11.30;97.20;;;;;;5062584;28;20462;-70
2022/12/29 01:17:02;;;;;;;1.13;0.40;;;11.20;98.00;;;;;;5065069;28;20419;-69
2022/12/29 01:19:28;;;;;;;1.00;0.50;;;11.20;97.60;;;;;;5066638;28;20431;-70
2022/12/29 01:21:55;;;;;;;0.70;0.40;;;11.20;97.50;;;;;;5067249;28;20424;-69
2022/12/29 01:24:22;;;;;;;0.80;0.40;;;11.30;97.10;;;;;;5066064;28;20435;-69
2022/12/29 01:26:49;;;;;;;0.70;0.40;;;11.30;96.50;;;;;;5067255;28;20431;-69
2022/12/29 01:29:17;;;;;;;0.70;0.40;;;11.40;96.00;;;;;;5063909;28;20442;-71
2022/12/29 01:31:44;;;;;;;0.60;0.30;;;11.50;95.00;;;;;;5065754;28;20438;-70
2022/12/29 01:34:11;;;;;;;0.70;0.40;;;11.50;94.80;;;;;;5065282;28;20445;-68
2022/12/29 01:36:38;;;;;;;1.10;0.40;;;11.60;94.90;;;;;;5067376;28;21142;-68
2022/12/29 01:39:04;;;;;;;0.60;0.30;;;11.70;93.30;;;;;;5067054;28;20424;-67
2022/12/29 01:41:31;;;;;;;0.60;0.30;;;11.70;93.00;;;;;;5067021;28;20442;-68
2022/12/29 01:44:00;;;;;;;0.65;0.40;;;11.80;92.60;;;;;;5066175;28;20854;-68
2022/12/29 01:46:32;;;;;;;0.73;0.47;;;11.90;91.20;;;;;;5070504;28;20431;-68
2022/12/29 01:49:05;;;;;;;0.70;0.43;;;11.90;90.40;;;;;;5070849;28;20431;-68
2022/12/29 01:51:36;;;;;;;0.80;0.40;;;12.00;88.90;;;;;;5071794;28;20925;-69
2022/12/29 01:54:06;;;;;;;1.10;0.40;;;12.10;87.50;;;;;;5070404;28;20427;-69
2022/12/29 01:56:33;;;;;;;1.05;0.60;;;12.20;87.90;;;;;;5070825;28;20427;-69
2022/12/29 01:59:04;;;;;;;1.20;0.50;;;12.20;86.10;;;;;;5068905;28;20427;-69
2022/12/29 02:01:32;;;;;;;0.80;0.50;;;12.20;84.10;;;;;;5068877;28;20432;-69
2022/12/29 02:03:59;;;;;;;1.10;0.40;;;12.30;83.50;;;;;;5068600;28;21174;-68
2022/12/29 02:06:32;;;;;;;1.00;0.50;;;12.30;84.00;;;;;;5070814;28;20449;-67
2022/12/29 02:08:59;;;;;;;1.30;0.50;;;12.20;84.40;;;;;;5069647;28;20446;-69
2022/12/29 02:11:27;;;;;;;1.08;0.50;;;12.10;83.80;;;;;;5069818;28;20431;-69
2022/12/29 02:13:54;;;;;;;0.82;0.60;;;12.10;84.50;;;;;;5067412;28;20463;-68
2022/12/29 02:16:37;;;;;;;1.05;0.50;;;12.00;83.80;;;;;;5069403;28;20440;-69
2022/12/29 02:19:36;;;;;;;1.10;0.60;;;12.00;84.10;;;;;;5069622;28;20829;-69
2022/12/29 02:22:14;;;;;;;1.02;0.50;;;12.00;83.70;;;;;;5070030;28;20438;-68
2022/12/29 02:25:35;;;;;;;1.00;0.80;;;12.00;83.60;;;;;;5069326;28;20438;-68
2022/12/29 02:28:30;;;;;;;0.90;0.57;;;12.10;82.50;;;;;;5067225;28;20945;-69
2022/12/29 02:31:08;;;;;;;0.75;0.50;;;12.10;82.60;;;;;;5068643;28;20435;-69
2022/12/29 02:33:49;;;;;;;1.40;0.68;;;12.10;82.90;;;;;;5063367;28;20438;-69
2022/12/29 02:36:25;;;;;;;1.55;0.60;;;12.10;82.80;;;;;;5062547;28;21064;-69
2022/12/29 02:39:03;;;;;;;1.40;0.63;;;12.10;83.30;;;;;;5069988;28;20427;-69
2022/12/29 02:41:33;;;;;;;1.10;0.60;;;12.10;83.50;;;;;;5070265;28;20435;-69
2022/12/29 02:44:07;;;;;;;1.20;0.50;;;12.10;83.70;;;;;;5069134;28;20435;-69
2022/12/29 02:46:42;;;;;;;1.10;0.70;;;12.10;84.10;;;;;;5068045;28;20435;-69
2022/12/29 02:49:13;;;;;;;0.90;0.60;;;12.10;83.80;;;;;;5068654;28;20443;-68
2022/12/29 02:51:47;;;;;;;1.08;0.60;;;12.10;84.40;;;;;;5069796;28;20426;-70
2022/12/29 02:57:01;;;;;;;1.70;0.60;;;12.10;84.90;;;;;;5068709;28;20500;-69
2022/12/29 02:59:28;;;;;;;1.60;0.60;;;12.10;85.70;;;;;;5067956;28;20802;-68
2022/12/29 03:02:26;;;;;;;0.80;0.60;;;12.10;86.60;;;;;;5067699;28;20434;-69
2022/12/29 03:05:28;;;;;;;1.20;0.50;;;12.00;87.90;;;;;;5068135;28;20431;-70
2022/12/29 03:08:05;;;;;;;1.20;0.50;;;12.00;88.00;;;;;;5068101;28;20423;-69
2022/12/29 03:10:42;;;;;;;0.90;0.60;;;12.00;88.60;;;;;;5064059;28;20419;-69
2022/12/29 03:16:12;;;;;;;0.60;0.47;;;11.90;90.00;;;;;;5067042;28;20446;-68
2022/12/29 03:18:46;;;;;;;0.88;0.68;;;11.90;90.20;;;;;;5063674;28;20431;-70
2022/12/29 03:21:18;;;;;;;0.70;0.50;;;11.80;90.50;;;;;;5060964;28;20789;-69
2022/12/29 03:23:48;;;;;;;1.40;0.50;;;11.80;90.70;;;;;;5068397;28;20443;-68
2022/12/29 03:26:18;;;;;;;0.70;0.50;;;11.80;90.70;;;;;;5061275;28;20423;-68
2022/12/29 03:28:50;;;;;;;0.70;0.40;;;11.80;90.80;;;;;;5066880;28;20427;-69
2022/12/29 03:31:18;;;;;;;1.90;0.70;;;11.80;91.20;;;;;;5060125;28;20427;-68
2022/12/29 03:33:48;;;;;;;0.80;0.60;;;11.70;91.50;;;;;;5067865;28;20489;-68
2022/12/29 03:36:24;;;;;;;0.60;0.50;;;11.70;92.00;;;;;;5061145;28;20411;-69
2022/12/29 03:38:57;;;;;;;1.20;0.50;;;11.70;91.70;;;;;;5068424;28;20436;-69
2022/12/29 03:41:29;;;;;;;0.80;0.50;;;11.70;91.80;;;;;;5068536;28;20412;-69
2022/12/29 03:43:56;;;;;;;0.80;0.40;;;11.80;92.00;;;;;;5066436;28;20481;-68
2022/12/29 03:46:23;;;;;;;0.70;0.47;;;11.70;92.20;;;;;;5063182;28;20431;-68
2022/12/29 03:48:51;;;;;;;1.20;0.47;;;11.80;91.90;;;;;;5077653;28;20435;-68
2022/12/29 03:51:18;;;;;;;0.95;0.50;;;11.80;91.90;;;;;;5080971;28;20412;-68
2022/12/29 03:53:44;;;;;;;1.00;0.60;;;11.80;91.80;;;;;;5078291;28;20435;-69
2022/12/29 03:56:11;;;;;;;0.90;0.50;;;11.80;91.70;;;;;;5073205;28;20442;-68
2022/12/29 03:58:38;;;;;;;0.70;0.50;;;11.70;91.50;;;;;;5067001;28;20423;-68
2022/12/29 04:01:04;;;;;;;0.70;0.50;;;11.60;91.90;;;;;;5066277;28;20960;-70
2022/12/29 04:03:31;;;;;;;0.70;0.50;;;11.60;91.80;;;;;;5066669;28;20452;-70
2022/12/29 04:05:59;;;;;;;0.90;0.50;;;11.60;91.60;;;;;;5068015;28;20416;-69
2022/12/29 04:08:26;;;;;;;1.40;0.60;;;11.50;91.70;;;;;;5067614;28;20457;-69
2022/12/29 04:10:53;;;;;;;0.80;0.40;;;11.50;91.70;;;;;;5068528;28;20424;-68
2022/12/29 04:13:19;;;;;;;0.90;0.60;;;11.50;91.70;;;;;;5065980;28;20782;-69
2022/12/29 04:15:46;;;;;;;0.80;0.50;;;11.50;91.90;;;;;;5067745;28;20434;-69
2022/12/29 04:18:13;;;;;;;1.00;0.70;;;11.50;91.60;;;;;;5059689;28;20414;-69
2022/12/29 04:23:26;;;;;;;0.80;0.50;;;11.50;91.70;;;;;;5049061;28;20396;-68
2022/12/29 04:25:52;;;;;;;0.90;0.60;;;11.50;91.70;;;;;;5068207;28;20461;-68
2022/12/29 04:28:20;;;;;;;0.70;0.50;;;11.50;92.40;;;;;;5065736;28;20429;-69
2022/12/29 04:30:47;;;;;;;1.10;0.60;;;11.40;91.90;;;;;;5063585;28;20523;-68
2022/12/29 04:33:14;;;;;;;0.90;0.50;;;11.40;92.20;;;;;;5086339;22;20450;-72
2022/12/29 04:35:42;;;;;;;0.70;0.50;;;11.40;92.00;;;;;;5093470;28;20439;-72
2022/12/29 04:38:08;;;;;;;1.20;0.93;;;11.40;91.80;;;;;;5093517;28;20425;-71
2022/12/29 04:40:39;;;;;;;1.20;0.50;;;11.40;91.90;;;;;;5073501;28;20431;-71
2022/12/29 04:43:05;;;;;;;0.80;0.60;;;11.40;91.30;;;;;;5076183;28;20911;-71
2022/12/29 04:45:32;;;;;;;0.90;0.70;;;11.50;91.20;;;;;;5083495;28;20456;-71
2022/12/29 04:47:59;;;;;;;1.20;0.60;;;11.50;90.90;;;;;;5076380;28;20433;-71
2022/12/29 04:50:25;;;;;;;1.05;0.60;;;11.60;90.80;;;;;;5074736;28;20437;-71
2022/12/29 04:52:52;;;;;;;1.08;0.50;;;11.60;90.30;;;;;;5076877;28;20418;-71
2022/12/29 04:55:19;;;;;;;0.70;0.50;;;11.70;90.10;;;;;;5076529;28;20451;-71
2022/12/29 04:57:47;;;;;;;1.10;0.60;;;11.80;88.70;;;;;;5074527;28;21377;-71
2022/12/29 05:00:15;;;;;;;0.90;0.70;;;11.80;87.60;;;;;;5080332;28;20439;-70
2022/12/29 05:02:42;;;;;;;1.05;0.70;;;11.90;87.10;;;;;;5076963;28;20418;-71
2022/12/29 05:05:09;;;;;;;0.80;0.50;;;11.90;87.30;;;;;;5072014;28;20434;-70
2022/12/29 05:07:36;;;;;;;1.80;0.80;;;11.80;86.50;;;;;;5075749;28;20433;-72
2022/12/29 05:10:03;;;;;;;1.10;0.60;;;11.80;86.80;;;;;;5071209;28;20499;-72
2022/12/29 05:12:31;;;;;;;1.67;0.65;;;11.80;86.10;;;;;;5106498;28;20441;-72
2022/12/29 05:14:59;;;;;;;1.10;0.70;;;11.70;86.50;;;;;;5092357;28;20440;-71
2022/12/29 05:17:26;;;;;;;1.20;0.73;;;11.70;85.50;;;;;;5085807;28;20426;-71
2022/12/29 05:19:53;;;;;;;1.20;0.60;;;11.80;84.60;;;;;;5080301;28;20426;-71
2022/12/29 05:22:20;;;;;;;1.42;0.70;;;11.80;84.80;;;;;;5075852;28;20456;-71
2022/12/29 05:24:47;;;;;;;1.27;0.57;;;11.70;84.90;;;;;;5074121;28;20909;-71
2022/12/29 05:27:14;;;;;;;2.53;0.80;;;11.70;84.40;;;;;;5080654;28;20437;-71
2022/12/29 05:29:40;;;;;;;1.40;0.77;;;11.80;84.20;;;;;;5083972;28;20511;-71
2022/12/29 05:32:08;;;;;;;1.85;0.90;;;11.80;84.30;;;;;;5081292;28;21149;-73
2022/12/29 05:34:35;;;;;;;1.95;0.70;;;11.70;84.20;;;;;;5086547;28;20425;-71
2022/12/29 05:37:02;;;;;;;1.70;0.80;;;11.70;84.10;;;;;;5084981;28;20423;-71
2022/12/29 05:39:29;;;;;;;1.20;0.70;;;11.70;83.70;;;;;;5074617;28;20437;-71
2022/12/29 05:41:56;;;;;;;2.10;0.90;;;11.80;84.60;;;;;;5078600;28;20433;-70
2022/12/29 05:44:23;;;;;;;0.80;0.50;;;11.70;84.10;;;;;;5079321;28;20935;-71
2022/12/29 05:46:49;;;;;;;2.42;0.60;;;11.80;83.70;;;;;;5082557;28;20807;-70
2022/12/29 05:49:18;;;;;;;0.85;0.63;;;11.90;82.90;;;;;;5079742;28;20448;-70
2022/12/29 05:51:45;;;;;;;1.20;0.70;;;11.90;83.50;;;;;;5076579;28;20440;-70
2022/12/29 05:54:11;;;;;;;1.10;0.50;;;11.90;83.10;;;;;;5081344;28;20432;-71
2022/12/29 05:56:38;;;;;;;0.90;0.60;;;11.90;82.90;;;;;;5093099;28;20491;-70
2022/12/29 05:59:05;;;;;;;1.00;0.60;;;11.90;83.20;;;;;;5078796;28;20426;-69
2022/12/29 06:01:33;;;;;;;1.00;0.40;;;12.00;82.90;;;;;;5082388;28;20433;-70
2022/12/29 06:03:59;;;;;;;0.70;0.50;;;11.90;82.70;;;;;;5079337;28;20444;-69
2022/12/29 06:06:27;;;;;;;1.20;0.60;;;11.90;83.00;;;;;;5082138;28;20425;-69
2022/12/29 06:08:54;;;;;;;1.23;0.70;;;12.00;82.90;;;;;;5076607;28;20423;-69
2022/12/29 06:11:21;;;;;;;0.95;0.50;;;12.00;82.30;;;;;;5078085;28;20795;-70
2022/12/29 06:13:48;;;;;;;1.65;0.60;;;12.00;82.20;;;;;;5080209;28;20440;-70
2022/12/29 06:16:14;;;;;;;1.75;0.50;;;12.00;81.80;;;;;;5083643;28;20433;-70
2022/12/29 06:18:42;;;;;;;1.00;0.60;;;12.00;81.20;;;;;;5085720;28;20907;-72
2022/12/29 06:21:08;;;;;;;1.40;0.60;;;12.00;81.20;;;;;;5081640;28;20943;-71
2022/12/29 06:23:36;;;;;;;2.47;0.60;;;12.00;81.60;;;;;;5073879;28;20422;-70
2022/12/29 06:26:03;;;;;;;0.90;0.50;;;12.00;82.10;;;;;;5074427;28;20431;-71
2022/12/29 06:28:30;;;;;;;0.90;0.40;;;11.90;82.70;;;;;;5081253;28;20422;-70
2022/12/29 06:30:57;;;;;;;1.30;0.60;;;11.90;83.50;;;;;;5082691;28;20417;-69
2022/12/29 06:33:24;;;;;;;1.30;0.50;;;11.80;84.00;;;;;;5070095;28;20902;-69
2022/12/29 06:35:50;;;;;;;0.77;0.50;;;11.70;84.00;;;;;;5075159;28;20431;-70
2022/12/29 06:38:17;;;;;;;1.02;0.60;;;11.70;84.70;;;;;;5082971;28;20543;-70
2022/12/29 06:40:45;;;;;;;2.00;0.50;;;11.80;85.10;;;;;;5075809;28;20789;-70
2022/12/29 06:43:12;;;;;;;1.00;0.40;;;11.80;85.40;;;;;;5079915;28;20802;-70
2022/12/29 06:45:39;;;;;;;0.70;0.50;;;11.80;86.60;;;;;;5085396;28;20425;-70
2022/12/29 06:48:07;;;;;;;0.70;0.40;;;11.80;86.30;;;;;;5083307;28;20536;-70
2022/12/29 06:50:34;;;;;;;0.80;0.50;;;11.80;86.90;;;;;;5082635;28;20523;-70
2022/12/29 06:53:00;;;;;;;1.52;0.60;;;11.70;87.50;;;;;;5079236;28;20873;-71
2022/12/29 06:55:28;;;;;;;0.80;0.40;;;11.80;86.70;;;;;;5079977;28;20434;-70
2022/12/29 06:57:56;;;;;;;0.75;0.40;;;11.80;86.40;;;;;;5073769;28;20920;-70
2022/12/29 07:00:23;;;;;;;1.00;0.50;;;11.80;86.50;;;;;;5079043;28;20824;-71
2022/12/29 07:02:50;;;;;;;1.70;0.40;;;11.80;86.40;;;;;;5075896;28;20431;-70
2022/12/29 07:05:17;;;;;;;1.83;0.60;;;11.80;84.40;;;;;;5083318;28;20522;-70
2022/12/29 07:07:44;;;;;;;0.85;0.50;;;11.80;84.20;;;;;;5076859;28;20443;-71
2022/12/29 07:10:11;;;;;;;1.70;0.60;;;11.90;83.90;;;;;;5081419;28;20518;-72
2022/12/29 07:12:37;;;;;;;1.05;0.60;;;11.80;83.50;;;;;;5074691;28;20430;-71
2022/12/29 07:15:07;;;;;;;1.50;0.70;;;11.80;82.10;;;;;;5078556;28;20473;-70
2022/12/29 07:17:33;;;;;;;1.10;0.40;;;11.90;80.90;;;;;;5075065;28;20528;-70
2022/12/29 07:20:00;;;;;;;1.50;0.70;;;11.90;80.80;;;;;;5081782;28;20426;-71
2022/12/29 07:22:27;;;;;;;1.20;0.57;;;11.90;79.90;;;;;;5081294;28;20475;-70
2022/12/29 07:24:54;;;;;;;1.90;0.60;;;11.90;79.30;;;;;;5078513;28;20746;-69
2022/12/29 07:27:20;;;;;;;1.50;0.50;;;11.90;79.40;;;;;;5080817;28;20759;-70
2022/12/29 07:29:47;;;;;;;1.80;0.60;;;11.90;79.10;;;;;;5072965;28;20858;-71
2022/12/29 07:32:15;;;;;;;2.25;1.23;;;11.90;79.40;;;;;;5082425;28;20449;-71
2022/12/29 07:34:45;;;;;;;1.38;0.50;;;11.80;79.20;;;;;;5071088;28;21299;-70
2022/12/29 07:37:11;;;;;;;1.23;0.90;;;11.90;79.20;;;;;;5080293;28;20984;-71
2022/12/29 07:39:38;;;;;;;1.58;0.60;;;11.90;79.40;;;;;;5080636;28;20429;-70
2022/12/29 07:42:05;;;;;;;1.10;0.60;;;11.80;79.30;;;;;;5075599;28;20899;-69
2022/12/29 07:44:32;;;;;;;1.73;0.60;;;11.80;79.20;;;;;;5076066;28;20439;-69
2022/12/29 07:46:58;;;;;;;2.30;0.80;;;11.80;79.30;;;;;;5082567;28;20627;-70
2022/12/29 07:49:27;;;;;;;1.90;0.80;;;11.80;80.00;;;;;;5076227;28;20424;-71
2022/12/29 07:51:53;;;;;;;1.33;0.70;;;11.70;79.70;;;;;;5083192;28;20432;-70
2022/12/29 07:54:22;;;;;;;2.88;0.80;;;11.80;80.20;;;;;;5073776;28;20415;-70
2022/12/29 07:56:49;;;;;;;2.60;0.60;;;11.80;80.20;;;;;;5078077;28;20426;-71
2022/12/29 07:59:16;;;;;;;2.07;0.70;;;11.80;80.70;;;;;;5075924;28;20490;-71
2022/12/29 08:01:42;;;;;;;2.45;0.90;;;11.80;79.20;;;;;;5081955;28;20456;-69
2022/12/29 08:04:09;;;;;;;2.40;0.60;;;11.80;78.90;;;;;;5077451;28;20459;-69
2022/12/29 08:06:37;;;;;;;1.77;0.80;;;11.80;79.20;;;;;;5075899;28;20439;-70
2022/12/29 08:09:04;;;;;;;1.60;0.80;;;11.80;79.30;;;;;;5073235;28;20614;-70
2022/12/29 08:11:31;;;;;;;1.58;0.70;;;11.80;79.30;;;;;;5079565;28;20434;-69
2022/12/29 08:13:58;;;;;;;1.65;0.70;;;11.70;78.90;;;;;;5080024;28;20451;-69
2022/12/29 08:16:24;;;;;;;2.10;0.88;;;11.70;78.80;;;;;;5075497;28;20415;-70
2022/12/29 08:18:51;;;;;;;3.40;0.90;;;11.60;78.90;;;;;;5081668;28;20452;-70
2022/12/29 08:21:18;;;;;;;2.70;0.90;;;11.70;78.00;;;;;;5079669;28;20944;-69
2022/12/29 08:23:46;;;;;;;2.08;0.70;;;11.70;78.10;;;;;;5077930;28;20456;-70
2022/12/29 08:26:13;;;;;;;2.40;0.90;;;11.70;78.10;;;;;;5079417;28;20433;-69
2022/12/29 08:28:39;;;;;;;2.88;1.00;;;11.70;78.00;;;;;;5079413;28;20438;-70
2022/12/29 08:31:06;;;;;;;2.50;0.90;;;11.70;78.00;;;;;;5087799;28;20488;-72
2022/12/29 08:33:33;;;;;;;2.05;0.80;;;11.70;77.40;;;;;;5096342;28;20432;-70
2022/12/29 08:36:01;;;;;;;3.83;1.70;;;11.70;76.10;;;;;;5093147;28;20631;-70
2022/12/29 08:38:28;;;;;;;2.10;0.80;;;11.70;76.50;;;;;;5097297;28;20514;-70
2022/12/29 08:40:57;;;;;;;3.03;1.20;;;11.60;75.70;;;;;;5095615;28;20795;-70
2022/12/29 08:43:25;;;;;;;1.73;0.70;;;11.60;76.00;;;;;;5096950;28;20514;-71
2022/12/29 08:45:52;;;;;;;4.70;1.10;;;11.50;76.00;;;;;;5088076;28;20433;-70
2022/12/29 08:48:21;;;;;;;2.80;0.80;;;11.50;76.00;;;;;;5082253;28;20454;-70
2022/12/29 08:50:49;;;;;;;2.65;1.10;;;11.50;75.30;;;;;;5079730;28;20535;-69
2022/12/29 08:53:17;;;;;;;2.97;0.93;;;11.50;74.70;;;;;;5077685;28;20447;-70
2022/12/29 08:55:45;;;;;;;2.30;0.80;;;11.50;74.10;;;;;;5081204;28;20421;-70
2022/12/29 08:58:14;;;;;;;4.10;0.93;;;11.60;73.70;;;;;;5086974;28;20410;-70
2022/12/29 09:00:41;;;;;;;2.10;0.70;;;11.60;73.30;;;;;;5081670;28;20513;-69
2022/12/29 09:03:08;;;;;;;2.10;0.90;;;11.60;72.70;;;;;;5074739;28;20905;-69
2022/12/29 09:05:34;;;;;;;1.75;0.82;;;11.70;72.90;;;;;;5073894;28;20420;-70
2022/12/29 09:08:01;;;;;;;2.80;1.00;;;11.60;72.30;;;;;;5072734;28;20440;-69
2022/12/29 09:10:28;;;;;;;2.00;1.10;;;11.70;71.60;;;;;;5088751;28;20510;-69
2022/12/29 09:12:54;;;;;;;2.70;1.00;;;11.70;70.80;;;;;;5093400;28;20429;-69
2022/12/29 09:15:23;;;;;;;2.47;0.90;;;11.70;70.80;;;;;;5095384;28;20444;-69
2022/12/29 09:17:49;;;;;;;2.50;0.82;;;11.70;70.10;;;;;;5080699;28;20434;-68
2022/12/29 09:20:18;;;;;;;2.20;0.93;;;11.70;70.40;;;;;;5074602;28;20911;-69
2022/12/29 09:22:46;;;;;;;3.38;1.00;;;11.60;71.40;;;;;;5079631;28;20452;-69
2022/12/29 09:25:13;;;;;;;2.70;0.90;;;11.60;71.60;;;;;;5076263;28;20442;-70
2022/12/29 09:27:39;;;;;;;2.45;0.90;;;11.60;71.20;;;;;;5072893;28;20464;-68
2022/12/29 09:30:10;;;;;;;2.47;1.10;;;11.80;70.50;;;;;;5072112;28;20435;-68
2022/12/29 09:32:38;;;;;;;2.75;0.90;;;11.90;69.10;;;;;;5076914;28;20437;-68
2022/12/29 09:35:05;;;;;;;2.47;1.00;;;12.10;68.20;;;;;;5075668;28;20979;-69
2022/12/29 09:37:32;;;;;;;2.55;1.10;;;12.20;67.60;;;;;;5068587;28;20446;-69
2022/12/29 09:39:59;;;;;;;3.88;1.10;;;12.30;67.30;;;;;;5073077;28;20438;-68
2022/12/29 09:42:33;;;;;;;3.70;1.20;;;12.40;66.50;;;;;;5076190;28;20434;-69
2022/12/29 09:45:11;;;;;;;3.58;1.00;;;12.50;66.50;;;;;;5076909;28;20425;-68
2022/12/29 09:47:41;;;;;;;2.85;1.00;;;12.50;65.60;;;;;;5081162;28;20891;-68
2022/12/29 09:50:21;;;;;;;3.33;1.35;;;12.60;64.60;;;;;;5080489;28;20429;-68
2022/12/29 09:52:51;;;;;;;2.20;0.85;;;12.80;63.90;;;;;;5075025;28;20447;-68
2022/12/29 09:55:22;;;;;;;2.55;0.90;;;12.90;63.00;;;;;;5071287;28;20429;-67
2022/12/29 09:57:55;;;;;;;2.75;1.00;;;12.90;62.30;;;;;;5076629;28;20408;-68
2022/12/29 10:00:24;;;;;;;3.47;1.10;;;12.90;63.00;;;;;;5073935;28;20894;-68
2022/12/29 10:02:58;;;;;;;3.65;1.25;;;12.90;62.10;;;;;;5073861;28;20431;-68
2022/12/29 10:05:34;;;;;;;2.80;1.30;;;13.00;62.10;;;;;;5071105;28;20499;-68
2022/12/29 10:08:17;;;;;;;1.90;1.00;;;13.00;61.80;;;;;;5080147;28;20437;-68
2022/12/29 10:10:51;;;;;;;3.55;1.58;;;13.10;62.00;;;;;;5084017;28;20544;-68
2022/12/29 10:13:28;;;;;;;2.78;0.85;;;13.20;61.30;;;;;;5070033;28;20453;-68
2022/12/29 10:16:03;;;;;;;3.10;0.82;;;13.10;61.10;;;;;;5081904;28;20760;-69
2022/12/29 10:18:54;;;;;;;3.05;0.90;;;13.10;61.20;;;;;;5074018;28;21022;-67
2022/12/29 10:21:34;;;;;;;3.87;1.03;;;13.10;60.90;;;;;;5076935;28;20431;-69
2022/12/29 10:24:05;;;;;;;3.17;1.23;;;13.20;60.30;;;;;;5073246;28;20431;-68
2022/12/29 10:26:36;;;;;;;3.03;1.88;;;13.40;60.10;;;;;;5075338;28;20510;-68
2022/12/29 10:29:05;;;;;;;3.63;0.90;;;13.60;59.90;;;;;;5073071;28;20433;-68
2022/12/29 10:31:38;;;;;;;3.38;1.20;;;13.70;58.20;;;;;;5081854;28;20548;-69
2022/12/29 10:34:15;;;;;;;3.63;1.10;;;13.60;57.60;;;;;;5082349;28;20441;-68
2022/12/29 10:36:47;;;;;;;1.92;0.90;;;13.50;58.70;;;;;;5083624;28;20418;-68
2022/12/29 10:39:19;;;;;;;3.00;1.10;;;13.50;58.20;;;;;;5081468;28;20421;-68
2022/12/29 10:41:50;;;;;;;2.95;1.13;;;13.40;58.20;;;;;;5080385;28;20432;-68
2022/12/29 10:44:19;;;;;;;3.20;1.00;;;13.30;59.00;;;;;;5074757;28;20877;-68
2022/12/29 10:46:52;;;;;;;3.60;1.02;;;13.30;58.80;;;;;;5080408;28;20476;-70
2022/12/29 10:49:21;;;;;;;3.60;1.20;;;13.30;59.70;;;;;;5074540;28;20901;-69
2022/12/29 10:51:51;;;;;;;5.15;1.50;;;13.40;59.10;;;;;;5068683;28;20416;-70
2022/12/29 10:54:24;;;;;;;3.20;1.10;;;13.50;58.90;;;;;;5077302;28;20447;-69
2022/12/29 10:56:54;;;;;;;2.70;0.95;;;13.50;58.90;;;;;;5080838;28;20469;-67
2022/12/29 10:59:24;;;;;;;2.83;1.10;;;13.40;58.80;;;;;;5080179;28;20432;-68
2022/12/29 11:01:59;;;;;;;2.22;0.80;;;13.40;59.70;;;;;;5076800;28;20898;-74
2022/12/29 11:04:39;;;;;;;4.68;1.00;;;13.40;59.10;;;;;;5075270;28;20410;-71
2022/12/29 11:07:06;;;;;;;2.60;1.30;;;13.40;59.80;;;;;;5079137;28;21401;-75
2022/12/29 11:09:36;;;;;;;3.45;1.02;;;13.50;59.50;;;;;;5078133;28;20505;-69
2022/12/29 11:12:20;;;;;;;3.20;1.10;;;13.50;59.60;;;;;;5072848;28;20839;-69
2022/12/29 11:14:47;;;;;;;2.47;1.00;;;13.60;59.00;;;;;;5069361;28;20808;-71
2022/12/29 11:17:16;;;;;;;2.60;0.90;;;13.80;58.90;;;;;;5077174;28;20785;-70
2022/12/29 11:19:44;;;;;;;3.45;0.90;;;13.80;59.30;;;;;;5072894;28;20756;-70
2022/12/29 11:22:21;;;;;;;3.22;1.40;;;13.80;59.20;;;;;;5074422;28;20430;-68
2022/12/29 11:24:49;;;;;;;3.60;1.20;;;13.90;58.80;;;;;;5077262;28;20897;-69
2022/12/29 11:27:19;;;;;;;3.63;1.20;;;14.00;59.40;;;;;;5082100;28;20795;-71
2022/12/29 11:29:46;;;;;;;2.95;1.15;;;14.00;58.40;;;;;;5084095;28;20425;-71
2022/12/29 11:32:18;;;;;;;3.50;1.00;;;13.70;58.10;;;;;;5081921;28;20450;-72
2022/12/29 11:34:46;;;;;;;2.67;1.03;;;13.60;58.60;;;;;;5083794;28;20506;-70
2022/12/29 11:37:18;;;;;;;3.22;1.08;;;13.60;58.70;;;;;;5084778;28;20422;-68
2022/12/29 11:39:51;;;;;;;3.63;1.05;;;13.60;58.90;;;;;;5072487;28;20774;-68
2022/12/29 11:42:22;;;;;;;4.32;1.45;;;13.50;59.50;;;;;;5078591;28;20426;-69
2022/12/29 11:44:51;;;;;;;3.85;1.40;;;13.40;60.20;;;;;;5072703;28;20445;-67
2022/12/29 11:47:30;;;;;;;3.40;1.40;;;13.30;60.00;;;;;;5084506;28;20432;-68
2022/12/29 11:50:01;;;;;;;3.60;1.50;;;13.30;60.90;;;;;;5078647;28;20438;-67
2022/12/29 11:52:32;;;;;;;3.45;0.90;;;13.20;61.00;;;;;;5096384;28;20458;-69
2022/12/29 11:55:02;;;;;;;3.05;1.10;;;13.20;61.30;;;;;;5083098;28;20414;-68
2022/12/29 11:57:29;;;;;;;3.23;1.10;;;13.10;61.70;;;;;;5076381;28;20839;-68
2022/12/29 11:59:58;;;;;;;3.80;1.30;;;13.10;61.80;;;;;;5076992;28;20419;-68
2022/12/29 12:02:37;;;;;;;2.97;1.20;;;13.00;61.90;;;;;;5074837;28;20430;-68
2022/12/29 12:05:20;;;;;;;4.63;1.30;;;12.90;62.30;;;;;;5082833;28;20432;-68
2022/12/29 12:07:50;;;;;;;4.60;1.40;;;13.00;62.20;;;;;;5090438;28;20815;-66
2022/12/29 12:10:23;;;;;;;3.00;1.40;;;13.00;60.90;;;;;;5081344;28;20436;-70
2022/12/29 12:12:56;;;;;;;4.43;1.10;;;13.20;61.00;;;;;;5077232;28;20422;-67
2022/12/29 12:15:30;;;;;;;3.40;1.20;;;13.40;60.80;;;;;;5088792;28;20512;-66
2022/12/29 12:18:02;;;;;;;3.10;1.10;;;13.30;60.20;;;;;;5087250;28;20427;-67
2022/12/29 12:20:39;;;;;;;4.45;1.27;;;13.10;60.90;;;;;;5075672;28;20488;-67
2022/12/29 12:23:18;;;;;;;3.58;1.30;;;12.90;61.60;;;;;;5075949;28;20412;-67
2022/12/29 12:25:52;;;;;;;4.15;1.40;;;12.80;62.20;;;;;;5076676;28;20449;-68
2022/12/29 12:28:27;;;;;;;3.40;1.50;;;12.70;62.20;;;;;;5084947;28;20412;-68
2022/12/29 12:30:58;;;;;;;5.90;1.80;;;12.60;62.70;;;;;;5071238;28;20439;-67
2022/12/29 12:33:31;;;;;;;3.60;1.00;;;12.70;63.40;;;;;;5082492;28;20532;-67
2022/12/29 12:36:18;;;;;;;3.65;1.27;;;12.70;62.90;;;;;;5076637;28;20424;-70
2022/12/29 12:38:54;;;;;;;4.25;1.40;;;12.70;62.80;;;;;;5082612;28;20402;-68
2022/12/29 12:41:30;;;;;;;3.37;1.50;;;12.60;63.60;;;;;;5073606;28;20465;-67
2022/12/29 12:44:02;;;;;;;3.00;1.20;;;12.50;63.90;;;;;;5068832;28;20423;-68
2022/12/29 12:47:04;;;;;;;3.58;1.30;;;12.50;64.50;;;;;;5077936;28;20433;-68
2022/12/29 12:50:02;;;;;;;3.20;1.30;;;12.60;64.30;;;;;;5089362;28;20419;-68
2022/12/29 12:52:38;;;;;;;3.25;1.10;;;13.20;63.60;;;;;;5059066;28;20427;-68
2022/12/29 12:55:23;;;;;;;4.88;1.50;;;13.60;61.40;;;;;;5072730;28;20413;-68
2022/12/29 12:57:59;;;;;;;4.07;1.30;;;13.20;62.40;;;;;;5079802;28;20587;-68
2022/12/29 13:00:26;;;;;;;2.92;1.02;;;13.00;63.50;;;;;;5071551;28;20542;-68
2022/12/29 13:03:05;;;;;;;3.65;1.05;;;13.50;62.70;;;;;;5076278;28;20518;-67
2022/12/29 13:05:45;;;;;;;5.20;0.90;;;14.60;59.40;;;;;;5070498;28;20428;-68
2022/12/29 13:08:37;;;;;;;3.10;1.10;;;15.30;56.00;;;;;;5072409;28;20524;-68
2022/12/29 13:11:11;;;;;;;4.20;1.42;;;15.10;56.10;;;;;;5082335;28;20532;-69
2022/12/29 13:13:54;;;;;;;3.20;1.10;;;14.40;57.00;;;;;;5075296;28;20904;-67
2022/12/29 13:16:30;;;;;;;3.35;1.02;;;13.60;59.80;;;;;;5080204;28;20427;-68
2022/12/29 13:19:03;;;;;;;4.20;1.20;;;13.00;62.00;;;;;;5089997;28;20432;-69
2022/12/29 13:21:40;;;;;;;2.67;1.02;;;12.70;63.60;;;;;;5090334;28;20421;-70
2022/12/29 13:24:17;;;;;;;3.53;1.60;;;12.50;64.70;;;;;;5094488;28;20431;-74
2022/12/29 13:26:48;;;;;;;3.17;1.50;;;12.30;66.20;;;;;;5088915;28;20485;-69
2022/12/29 13:29:21;;;;;;;3.97;1.40;;;12.20;66.20;;;;;;5087972;28;20493;-69
2022/12/29 13:31:55;;;;;;;3.15;1.13;;;12.10;67.20;;;;;;5076799;28;20454;-71
2022/12/29 13:34:33;;;;;;;5.22;1.60;;;12.10;67.60;;;;;;5080073;28;20430;-70
2022/12/29 13:37:04;;;;;;;4.07;1.40;;;12.10;68.10;;;;;;5088318;28;20417;-70
2022/12/29 13:39:38;;;;;;;3.88;1.20;;;12.00;68.50;;;;;;5087286;28;20890;-69